Fairfield, North Carolina
Current Conditions -  °F | °C
As of 2:56 PM on Sunday 25 Jan 2015 (Local Time) from K2DP Reporting Station
Clear Clear  
Wind Chill: 44°   Ceiling: Unl
Heat Index: 49°   Visibility: 10mi
Dew Point: 30°   Wind: 13mph
Humidity: 48%   Direction: 190°S
Pressure: 29.92"   Gusts: 17mph
Location:  35.54°N, 76.22°W
Report Text: K2DP 251956Z AUTO 19011G15KT 10SM CLR 10/M01 A2992 RMK AO2 SLPNO T00961009
Loading
Personal Weather Stations






























Interactive Weather Map New forecast layout! Learn more

10-Day Weather Forecast

Advertisements
Track Severe Weather on mobile